To NAV CANADA Home Page Login to a new session Search on AWWS site Disclaimer Vers la page française équivalente Tips FAQ What's new on the site To the Forecasts and Observations / NOTAM section To "File a Flight Plan" website Publications and other links Update of the User's profile FIC Telephone Numbers My Weather Data Folder Route Weather Data Regional Weather Data Local Weather Data To the Forecasts and Observations / NOTAM section
Request Generated 10/19/2018 at 15:45:22 UTC . Weather information available at that time is displayed.

METAR/TAF

CHIBOUGAMAU/CHAPAIS/QC    

METAR CYMT 191500Z AUTO 16009KT 9SM OVC006 M00/M01 A2963 RMK SLP056=
METAR CYMT 191400Z AUTO 16012KT 9SM OVC006 M01/M02 A2965 RMK SLP065=
METAR CYMT 191300Z AUTO 15009KT 9SM OVC006 M02/M03 A2969 RMK SLP077=

TAF AMD CYMT 191509Z 1915/1924 16012KT 3SM -SN OVC006 TEMPO 1915/1918
P6SM NSW FEW006 OVC015
BECMG 1916/1918 20010G20KT
FM191800 20010G20KT 6SM -RA BR OVC012 TEMPO 1918/1924 4SM -RA BR
RMK FCST BASED ON AUTO OBS. NXT FCST BY 191800Z=
Your time UTC time
Weather data provided by Environment Canada and NAV CANADA